Time;durP1;ratioP1;P1;durP2;ratioP2;P2;SDS_P1;SDS_P2;PMS_P1;PMS_P2;Temp;Humidity;BMP_temperature;BMP_pressure;BME280_temperature;BME280_humidity;BME280_pressure;Samples;Min_cycle;Max_cycle;Signal;HPM_P1;HPM_P2
2022/05/04 00:01:10;;;;;;;16.83;3.58;;;7.70;99.90;;;;;;5040899;28;20194;-71
2022/05/04 00:03:39;;;;;;;11.10;2.97;;;7.70;99.90;;;;;;5058261;28;20449;-71
2022/05/04 00:06:05;;;;;;;11.43;2.92;;;7.70;99.90;;;;;;5057673;28;20385;-72
2022/05/04 00:08:31;;;;;;;12.18;3.15;;;7.70;99.90;;;;;;5058361;28;20048;-72
2022/05/04 00:10:57;;;;;;;8.68;2.83;;;7.70;99.90;;;;;;5058331;28;20063;-71
2022/05/04 00:13:23;;;;;;;11.52;2.67;;;7.70;99.90;;;;;;5057357;28;20457;-72
2022/05/04 00:15:48;;;;;;;11.73;3.10;;;7.70;99.90;;;;;;5057970;28;20033;-72
2022/05/04 00:18:14;;;;;;;13.00;3.47;;;7.70;99.90;;;;;;5057492;28;20080;-71
2022/05/04 00:20:40;;;;;;;11.45;2.97;;;7.70;99.90;;;;;;5057449;28;20040;-72
2022/05/04 00:23:05;;;;;;;8.35;2.70;;;7.60;99.90;;;;;;5056943;28;20453;-72
2022/05/04 00:25:31;;;;;;;8.40;2.90;;;7.70;99.90;;;;;;5057544;28;20127;-72
2022/05/04 00:27:56;;;;;;;10.82;2.83;;;7.70;99.90;;;;;;5057340;28;20106;-72
2022/05/04 00:30:22;;;;;;;9.88;2.50;;;7.60;99.90;;;;;;5057649;28;20044;-72
2022/05/04 00:32:48;;;;;;;13.10;2.75;;;7.60;99.90;;;;;;5056764;28;20055;-71
2022/05/04 00:35:13;;;;;;;10.85;2.50;;;7.70;99.90;;;;;;5057330;28;20044;-72
2022/05/04 00:37:39;;;;;;;9.40;2.90;;;7.60;99.90;;;;;;5053989;28;20080;-71
2022/05/04 00:40:05;;;;;;;9.25;2.53;;;7.60;99.90;;;;;;5057254;28;20061;-72
2022/05/04 00:42:31;;;;;;;11.52;2.67;;;7.60;99.90;;;;;;5057522;28;20037;-71
2022/05/04 00:44:56;;;;;;;10.27;2.92;;;7.60;99.90;;;;;;5057379;28;20053;-71
2022/05/04 00:47:22;;;;;;;11.15;2.70;;;7.60;99.90;;;;;;5057055;28;20041;-72
2022/05/04 00:49:48;;;;;;;10.15;3.10;;;7.60;99.90;;;;;;5057233;28;20045;-72
2022/05/04 00:52:15;;;;;;;10.23;3.08;;;7.60;99.90;;;;;;5056744;28;20399;-71
2022/05/04 00:54:43;;;;;;;11.38;2.92;;;7.60;99.90;;;;;;5057176;28;20041;-72
2022/05/04 00:57:11;;;;;;;14.10;3.00;;;7.60;99.90;;;;;;5057534;28;20103;-71
2022/05/04 00:59:38;;;;;;;9.52;2.53;;;7.60;99.90;;;;;;5056653;28;20045;-71
2022/05/04 01:02:04;;;;;;;13.50;3.03;;;7.50;99.90;;;;;;5005359;28;20132;-72
2022/05/04 01:04:30;;;;;;;10.32;2.90;;;7.60;99.90;;;;;;5056192;28;20437;-72
2022/05/04 01:06:56;;;;;;;9.35;2.65;;;7.50;99.90;;;;;;5056625;28;20048;-72
2022/05/04 01:09:22;;;;;;;14.00;3.08;;;7.60;99.90;;;;;;5021484;28;20057;-71
2022/05/04 01:11:48;;;;;;;13.20;3.28;;;7.50;99.90;;;;;;5056790;28;20045;-71
2022/05/04 01:14:15;;;;;;;10.43;2.80;;;7.50;99.90;;;;;;5056802;28;20480;-71
2022/05/04 01:16:43;;;;;;;11.70;3.15;;;7.60;99.90;;;;;;5056647;28;20087;-72
2022/05/04 01:19:10;;;;;;;8.10;2.60;;;7.50;99.90;;;;;;5056223;28;20037;-71
2022/05/04 01:21:36;;;;;;;11.23;2.80;;;7.50;99.90;;;;;;5056400;28;20036;-72
2022/05/04 01:24:02;;;;;;;12.07;3.20;;;7.50;99.90;;;;;;5054719;28;20101;-72
2022/05/04 01:26:28;;;;;;;13.95;3.17;;;7.50;99.90;;;;;;5056347;28;20041;-71
2022/05/04 01:28:53;;;;;;;7.90;2.83;;;7.60;99.90;;;;;;5056141;28;20045;-71
2022/05/04 01:31:19;;;;;;;12.63;3.00;;;7.60;99.90;;;;;;5056439;28;20450;-72
2022/05/04 01:33:45;;;;;;;6.75;2.65;;;7.60;99.90;;;;;;5056141;28;20041;-71
2022/05/04 01:36:10;;;;;;;13.85;3.50;;;7.60;99.90;;;;;;5056551;28;20132;-72
2022/05/04 01:38:36;;;;;;;9.05;2.47;;;7.60;99.90;;;;;;5056161;28;20434;-72
2022/05/04 01:41:02;;;;;;;9.60;2.92;;;7.60;99.90;;;;;;5056125;28;20033;-72
2022/05/04 01:43:28;;;;;;;10.38;2.85;;;7.60;99.90;;;;;;5039340;28;20378;-71
2022/05/04 01:45:54;;;;;;;8.50;2.75;;;7.60;99.90;;;;;;5056177;28;20049;-72
2022/05/04 01:48:20;;;;;;;8.13;3.05;;;7.60;99.90;;;;;;5055777;28;20095;-71
2022/05/04 01:50:45;;;;;;;11.20;2.80;;;7.60;99.90;;;;;;5056107;28;20076;-72
2022/05/04 01:53:11;;;;;;;10.43;2.90;;;7.60;99.90;;;;;;5055097;28;20358;-72
2022/05/04 01:55:37;;;;;;;9.20;3.13;;;7.60;99.90;;;;;;5055145;28;20082;-72
2022/05/04 01:58:03;;;;;;;8.77;3.10;;;7.50;99.90;;;;;;5020732;28;20103;-71
2022/05/04 02:00:29;;;;;;;10.68;2.70;;;7.60;99.90;;;;;;5055065;28;20064;-72
2022/05/04 02:02:55;;;;;;;12.73;2.90;;;7.60;99.90;;;;;;5055500;28;20049;-71
2022/05/04 02:05:24;;;;;;;12.07;3.17;;;7.60;99.90;;;;;;5055497;28;20489;-71
2022/05/04 02:07:50;;;;;;;8.70;2.78;;;7.60;99.90;;;;;;5056202;28;20056;-71
2022/05/04 02:10:16;;;;;;;10.05;2.78;;;7.60;99.90;;;;;;5055831;28;20040;-72
2022/05/04 02:12:42;;;;;;;11.00;2.75;;;7.60;99.90;;;;;;5053686;28;20049;-72
2022/05/04 02:15:10;;;;;;;13.68;3.30;;;7.60;99.90;;;;;;5055360;28;20134;-71
2022/05/04 02:17:37;;;;;;;12.55;2.83;;;7.60;99.90;;;;;;5055167;28;20382;-71
2022/05/04 02:20:03;;;;;;;15.15;3.60;;;7.60;99.90;;;;;;5055289;28;20044;-71
2022/05/04 02:22:29;;;;;;;11.45;2.95;;;7.60;99.90;;;;;;5055290;28;20041;-72
2022/05/04 02:24:55;;;;;;;14.48;3.13;;;7.60;99.90;;;;;;5055507;28;20049;-72
2022/05/04 02:27:21;;;;;;;8.10;2.72;;;7.60;99.90;;;;;;5055370;28;20052;-72
2022/05/04 02:29:46;;;;;;;10.85;3.33;;;7.60;99.90;;;;;;5055191;28;20045;-71
2022/05/04 02:32:12;;;;;;;12.60;3.53;;;7.60;99.90;;;;;;5054964;28;20131;-72
2022/05/04 02:40:06;;;;;;;8.25;3.08;;;7.60;99.90;;;;;;5055001;28;20049;-72
2022/05/04 02:42:32;;;;;;;12.05;2.80;;;7.60;99.90;;;;;;5046318;28;20076;-72
2022/05/04 02:44:58;;;;;;;9.80;2.97;;;7.60;99.90;;;;;;5055265;28;20084;-72
2022/05/04 02:47:24;;;;;;;12.27;2.88;;;7.60;99.90;;;;;;5055170;28;20049;-72
2022/05/04 02:49:49;;;;;;;6.43;2.58;;;7.60;99.90;;;;;;5055178;28;20408;-73
2022/05/04 02:52:15;;;;;;;11.90;3.08;;;7.60;99.90;;;;;;5055039;28;20123;-71
2022/05/04 02:54:40;;;;;;;8.95;3.00;;;7.60;99.90;;;;;;5004069;28;20088;-72
2022/05/04 02:57:06;;;;;;;8.00;3.22;;;7.60;99.90;;;;;;5054596;28;20045;-71
2022/05/04 02:59:32;;;;;;;11.95;3.40;;;7.60;99.90;;;;;;5054581;28;20102;-71
2022/05/04 03:04:42;;;;;;;15.18;2.83;;;7.50;99.90;;;;;;5037081;28;20053;-72
2022/05/04 03:07:07;;;;;;;11.73;3.05;;;7.50;99.90;;;;;;5054998;28;20052;-71
2022/05/04 03:09:33;;;;;;;11.70;3.30;;;7.50;99.90;;;;;;5054989;28;20041;-71
2022/05/04 03:11:59;;;;;;;9.57;3.42;;;7.50;99.90;;;;;;5054474;28;20084;-71
2022/05/04 03:14:26;;;;;;;14.27;3.45;;;7.40;99.90;;;;;;5020538;28;20053;-71
2022/05/04 03:16:53;;;;;;;9.98;2.90;;;7.50;99.90;;;;;;5054758;28;20353;-71
2022/05/04 03:19:23;;;;;;;13.40;3.25;;;7.50;99.90;;;;;;5054990;28;20045;-72
2022/05/04 03:21:49;;;;;;;10.27;3.25;;;7.50;99.90;;;;;;5037095;28;20059;-72
2022/05/04 03:24:15;;;;;;;13.05;3.35;;;7.40;99.90;;;;;;5054690;28;20036;-72
2022/05/04 03:26:40;;;;;;;12.65;3.50;;;7.40;99.90;;;;;;5054565;28;20041;-71
2022/05/04 03:29:07;;;;;;;9.77;3.33;;;7.50;99.90;;;;;;5054395;28;20134;-72
2022/05/04 03:31:32;;;;;;;13.85;3.58;;;7.40;99.90;;;;;;5055094;28;20045;-71
2022/05/04 03:33:58;;;;;;;11.20;3.60;;;7.40;99.90;;;;;;5054600;28;20041;-71
2022/05/04 03:36:24;;;;;;;10.57;3.47;;;7.40;99.90;;;;;;5054435;28;20041;-71
2022/05/04 03:38:49;;;;;;;9.45;3.30;;;7.40;99.90;;;;;;5054544;28;20051;-72
2022/05/04 03:41:15;;;;;;;8.93;3.28;;;7.40;99.90;;;;;;5053377;28;20067;-72
2022/05/04 03:43:41;;;;;;;14.45;3.22;;;7.40;99.90;;;;;;5035805;28;20057;-71
2022/05/04 03:46:12;;;;;;;7.70;2.90;;;7.40;99.90;;;;;;5054675;28;20124;-71
2022/05/04 03:48:38;;;;;;;6.18;2.58;;;7.40;99.90;;;;;;5039662;28;20044;-71
2022/05/04 03:51:04;;;;;;;11.48;3.40;;;7.40;99.90;;;;;;5058179;28;20048;-71
2022/05/04 03:53:30;;;;;;;11.52;3.20;;;7.40;99.90;;;;;;5057951;28;20049;-72
2022/05/04 03:55:56;;;;;;;8.55;3.40;;;7.40;99.90;;;;;;5057885;28;20433;-73
2022/05/04 03:58:21;;;;;;;11.60;3.45;;;7.40;99.90;;;;;;5058078;28;20041;-72
2022/05/04 04:00:47;;;;;;;12.63;4.15;;;7.40;99.90;;;;;;5058135;28;20056;-71
2022/05/04 04:03:12;;;;;;;8.73;3.25;;;7.40;99.90;;;;;;5058298;28;20128;-71
2022/05/04 04:05:38;;;;;;;14.13;3.47;;;7.40;99.90;;;;;;5039978;28;20080;-72
2022/05/04 04:08:03;;;;;;;9.65;3.50;;;7.50;99.90;;;;;;5057757;28;20410;-71
2022/05/04 04:10:29;;;;;;;16.67;3.72;;;7.40;99.90;;;;;;5040044;28;21645;-71
2022/05/04 04:12:54;;;;;;;15.02;3.78;;;7.50;99.90;;;;;;5057148;28;20098;-72
2022/05/04 04:15:20;;;;;;;10.27;3.53;;;7.50;99.90;;;;;;5057689;28;20053;-72
2022/05/04 04:17:47;;;;;;;14.50;3.53;;;7.50;99.90;;;;;;5057342;28;20103;-70
2022/05/04 04:22:57;;;;;;;13.68;3.28;;;7.50;99.90;;;;;;5057542;28;20485;-72
2022/05/04 04:25:23;;;;;;;12.23;3.65;;;7.60;99.90;;;;;;5022400;28;20136;-72
2022/05/04 04:27:49;;;;;;;13.20;4.03;;;7.60;99.90;;;;;;5057537;28;20080;-71
2022/05/04 04:30:14;;;;;;;17.70;3.85;;;7.60;99.90;;;;;;5057570;28;20048;-71
2022/05/04 04:32:40;;;;;;;10.65;3.83;;;7.60;99.90;;;;;;5057426;28;20045;-71
2022/05/04 04:35:06;;;;;;;12.63;3.40;;;7.60;99.90;;;;;;5041408;28;20469;-71
2022/05/04 04:37:32;;;;;;;14.40;3.78;;;7.60;99.90;;;;;;5040434;28;20385;-71
2022/05/04 04:39:57;;;;;;;14.98;4.35;;;7.60;99.90;;;;;;5038774;28;20040;-70
2022/05/04 04:42:23;;;;;;;13.55;3.50;;;7.70;99.90;;;;;;5040300;28;20053;-71
2022/05/04 04:44:49;;;;;;;10.65;3.75;;;7.70;99.90;;;;;;5040714;28;20056;-73
2022/05/04 04:47:14;;;;;;;15.88;4.57;;;7.70;99.90;;;;;;5057324;28;20361;-72
2022/05/04 04:49:40;;;;;;;13.32;4.90;;;7.80;99.90;;;;;;5057867;28;20076;-71
2022/05/04 04:52:06;;;;;;;11.85;4.80;;;7.80;99.90;;;;;;5056286;28;20036;-71
2022/05/04 04:54:31;;;;;;;10.50;3.47;;;7.80;99.90;;;;;;5056308;28;20523;-71
2022/05/04 04:56:57;;;;;;;15.25;3.97;;;7.90;99.90;;;;;;5039207;28;20103;-71
2022/05/04 04:59:22;;;;;;;12.88;3.30;;;7.90;99.90;;;;;;5057268;28;20402;-72
2022/05/04 05:01:48;;;;;;;11.85;3.33;;;8.00;99.90;;;;;;5056835;28;20057;-71
2022/05/04 05:04:13;;;;;;;13.45;3.60;;;8.00;99.90;;;;;;5056092;28;20068;-72
2022/05/04 05:06:39;;;;;;;13.27;4.47;;;8.10;99.90;;;;;;5054536;28;20461;-71
2022/05/04 05:09:04;;;;;;;12.18;3.50;;;8.10;99.90;;;;;;5056556;28;20084;-72
2022/05/04 05:11:30;;;;;;;12.27;3.70;;;8.10;99.90;;;;;;5056580;28;20049;-72
2022/05/04 05:16:40;;;;;;;10.55;3.03;;;8.20;99.90;;;;;;5056425;28;20060;-72
2022/05/04 05:19:05;;;;;;;8.23;2.92;;;8.20;99.90;;;;;;5055678;28;20052;-72
2022/05/04 05:21:31;;;;;;;9.38;2.75;;;8.30;99.90;;;;;;5038049;28;20080;-72
2022/05/04 05:23:56;;;;;;;19.00;3.25;;;8.30;99.90;;;;;;5052866;28;20044;-73
2022/05/04 05:26:22;;;;;;;11.65;3.28;;;8.40;99.90;;;;;;5037982;28;20052;-72
2022/05/04 05:28:47;;;;;;;7.88;2.72;;;8.40;99.90;;;;;;5056093;28;20076;-69
2022/05/04 05:31:13;;;;;;;10.57;3.28;;;8.50;99.90;;;;;;5056035;28;20044;-67
2022/05/04 05:33:39;;;;;;;7.55;3.05;;;8.50;99.90;;;;;;5055407;28;20049;-68
2022/05/04 05:36:05;;;;;;;9.70;2.90;;;8.50;99.90;;;;;;5056339;28;20430;-71
2022/05/04 05:38:31;;;;;;;13.05;3.20;;;8.60;99.90;;;;;;5052322;28;20056;-71
2022/05/04 05:40:57;;;;;;;8.95;3.03;;;8.60;99.90;;;;;;5055535;28;20063;-72
2022/05/04 05:43:22;;;;;;;13.93;3.45;;;8.60;99.90;;;;;;5054667;28;20045;-72
2022/05/04 05:45:48;;;;;;;13.13;3.40;;;8.70;99.90;;;;;;5055559;28;20119;-71
2022/05/04 05:48:13;;;;;;;10.75;3.08;;;8.80;99.90;;;;;;5038171;28;20056;-71
2022/05/04 05:50:39;;;;;;;12.57;2.55;;;8.80;99.90;;;;;;5055869;28;20434;-72
2022/05/04 05:53:05;;;;;;;11.60;3.22;;;8.90;99.90;;;;;;5055430;28;20118;-72
2022/05/04 05:55:30;;;;;;;7.75;3.22;;;8.90;99.90;;;;;;5055747;28;20128;-71
2022/05/04 05:57:56;;;;;;;12.90;3.22;;;8.90;99.90;;;;;;5055812;28;20107;-72
2022/05/04 06:00:22;;;;;;;13.18;3.28;;;9.00;99.90;;;;;;5047582;28;20053;-71
2022/05/04 06:02:47;;;;;;;10.63;3.08;;;9.00;99.90;;;;;;5036043;28;20053;-72
2022/05/04 06:05:13;;;;;;;20.45;3.25;;;9.00;99.90;;;;;;5035860;28;20362;-72
2022/05/04 06:07:39;;;;;;;8.70;3.75;;;9.10;99.90;;;;;;5035752;28;20045;-72
2022/05/04 06:10:06;;;;;;;13.57;3.30;;;9.10;99.90;;;;;;4998582;28;20058;-72
2022/05/04 06:12:32;;;;;;;13.05;3.60;;;9.10;99.90;;;;;;5035648;28;20088;-72
2022/05/04 06:14:57;;;;;;;14.15;4.10;;;9.10;99.90;;;;;;5016038;28;20073;-71
2022/05/04 06:17:23;;;;;;;7.70;2.60;;;9.20;99.90;;;;;;5035511;28;20049;-71
2022/05/04 06:19:48;;;;;;;8.48;2.53;;;9.20;99.90;;;;;;5035436;28;20481;-71
2022/05/04 06:22:14;;;;;;;17.13;3.15;;;9.20;99.90;;;;;;5036043;28;20355;-72
2022/05/04 06:24:40;;;;;;;10.25;3.22;;;9.30;99.90;;;;;;5035584;28;20056;-72
2022/05/04 06:27:06;;;;;;;9.20;2.78;;;9.40;99.90;;;;;;5036082;28;20049;-71
2022/05/04 06:35:06;;;;;;;6.78;2.47;;;9.60;99.90;;;;;;5035374;28;20093;-72
2022/05/04 06:37:32;;;;;;;8.07;2.42;;;9.60;99.90;;;;;;5035400;28;20099;-72
2022/05/04 06:39:58;;;;;;;9.52;2.97;;;9.70;99.90;;;;;;5035414;28;20049;-72
2022/05/04 06:42:24;;;;;;;6.90;2.58;;;9.80;99.90;;;;;;5034978;28;20182;-72
2022/05/04 06:44:49;;;;;;;7.68;2.15;;;9.80;99.90;;;;;;5035110;28;20053;-71
2022/05/04 06:47:15;;;;;;;10.68;2.60;;;9.90;99.90;;;;;;5017191;28;20053;-72
2022/05/04 06:49:40;;;;;;;9.35;2.28;;;10.00;99.90;;;;;;5035027;28;20056;-72
2022/05/04 06:52:07;;;;;;;13.65;2.55;;;10.20;99.90;;;;;;5035205;28;20041;-71
2022/05/04 06:54:32;;;;;;;10.05;2.67;;;10.10;99.90;;;;;;5034965;28;20045;-71
2022/05/04 06:56:58;;;;;;;9.10;2.38;;;10.20;99.90;;;;;;5035029;28;20464;-72
2022/05/04 06:59:23;;;;;;;7.43;2.42;;;10.40;99.90;;;;;;5034451;28;20041;-72
2022/05/04 07:01:49;;;;;;;7.25;2.30;;;10.40;99.90;;;;;;5035117;28;20220;-73
2022/05/04 07:04:16;;;;;;;8.25;1.90;;;10.50;99.90;;;;;;5034759;28;20053;-72
2022/05/04 07:06:41;;;;;;;7.93;2.83;;;10.50;99.90;;;;;;5035014;28;20041;-72
2022/05/04 07:09:07;;;;;;;7.07;2.20;;;10.60;99.90;;;;;;5035058;28;20055;-72
2022/05/04 07:11:32;;;;;;;6.63;2.47;;;10.60;99.90;;;;;;5035729;28;20079;-72
2022/05/04 07:13:58;;;;;;;9.43;2.40;;;10.70;99.90;;;;;;5015690;28;20050;-73
2022/05/04 07:16:24;;;;;;;11.23;2.20;;;10.80;99.90;;;;;;5014121;28;20430;-72
2022/05/04 07:18:49;;;;;;;9.07;2.17;;;10.90;99.90;;;;;;5031096;28;20350;-72
2022/05/04 07:21:15;;;;;;;11.68;2.50;;;11.00;99.90;;;;;;5034290;28;20111;-72
2022/05/04 07:23:40;;;;;;;9.35;2.58;;;11.10;99.90;;;;;;5037799;28;20060;-73
2022/05/04 07:26:06;;;;;;;7.72;2.25;;;11.00;99.90;;;;;;5038887;28;20052;-72
2022/05/04 07:28:31;;;;;;;7.40;2.28;;;11.20;99.90;;;;;;5038896;28;20041;-71
2022/05/04 07:30:57;;;;;;;10.18;2.40;;;11.30;99.90;;;;;;5038700;28;20142;-72
2022/05/04 07:33:22;;;;;;;9.65;2.10;;;11.30;99.90;;;;;;5038767;28;20041;-72
2022/05/04 07:35:48;;;;;;;8.23;2.85;;;11.40;99.90;;;;;;5035343;28;20041;-72
2022/05/04 07:38:14;;;;;;;11.82;2.65;;;11.40;99.90;;;;;;5018083;28;20060;-73
2022/05/04 07:43:23;;;;;;;10.25;2.55;;;11.50;99.90;;;;;;5017730;28;20050;-72
2022/05/04 07:45:49;;;;;;;10.35;1.90;;;11.60;99.90;;;;;;5034473;28;20402;-72
2022/05/04 07:48:14;;;;;;;8.00;2.35;;;11.70;99.90;;;;;;5021155;28;20111;-72
2022/05/04 07:50:40;;;;;;;12.88;2.45;;;11.70;99.90;;;;;;5017660;28;20080;-72
2022/05/04 07:53:06;;;;;;;10.55;2.13;;;11.70;99.90;;;;;;5019114;28;20367;-71
2022/05/04 07:55:32;;;;;;;8.90;2.20;;;11.90;99.90;;;;;;5038001;28;20103;-73
2022/05/04 07:57:58;;;;;;;10.18;2.40;;;12.00;99.90;;;;;;5038154;28;20042;-73
2022/05/04 08:05:54;;;;;;;5.60;1.95;;;12.20;99.90;;;;;;5037757;28;20050;-72
2022/05/04 08:08:19;;;;;;;7.95;2.83;;;12.00;99.90;;;;;;5038253;28;20115;-72
2022/05/04 08:10:45;;;;;;;8.45;2.30;;;12.00;99.90;;;;;;5038475;28;20041;-72
2022/05/04 08:13:10;;;;;;;15.30;2.13;;;12.10;99.90;;;;;;5019350;28;20073;-72
2022/05/04 08:15:37;;;;;;;8.57;2.38;;;12.40;99.90;;;;;;5038043;28;20045;-71
2022/05/04 08:18:03;;;;;;;8.82;2.08;;;12.40;99.90;;;;;;5037580;28;20050;-72
2022/05/04 08:20:29;;;;;;;8.60;2.53;;;12.50;99.90;;;;;;5017340;28;20065;-73
2022/05/04 08:22:55;;;;;;;9.57;2.33;;;12.50;99.90;;;;;;5034770;28;20426;-72
2022/05/04 08:25:21;;;;;;;6.28;1.85;;;12.50;99.90;;;;;;5017400;28;20065;-72
2022/05/04 08:27:47;;;;;;;8.65;2.38;;;12.60;99.90;;;;;;5033682;28;20346;-72
2022/05/04 08:30:12;;;;;;;10.30;2.67;;;12.80;99.90;;;;;;5037825;28;20473;-72
2022/05/04 08:32:38;;;;;;;8.18;2.20;;;12.80;99.90;;;;;;5037383;28;20049;-72
2022/05/04 08:35:04;;;;;;;10.85;2.40;;;12.90;99.70;;;;;;5036990;28;20046;-72
2022/05/04 08:37:30;;;;;;;12.60;2.47;;;13.00;99.90;;;;;;5037251;28;20061;-72
2022/05/04 08:39:56;;;;;;;9.50;2.50;;;13.00;99.40;;;;;;5034576;28;20049;-72
2022/05/04 08:42:22;;;;;;;13.00;2.50;;;13.10;99.60;;;;;;5016981;28;20069;-72
2022/05/04 08:44:52;;;;;;;12.38;2.15;;;13.40;99.60;;;;;;5033439;28;20049;-73
2022/05/04 08:47:20;;;;;;;8.13;1.98;;;14.30;99.70;;;;;;5017074;28;20050;-72
2022/05/04 08:49:47;;;;;;;11.07;2.10;;;14.80;98.10;;;;;;5032909;28;20350;-73
2022/05/04 08:52:13;;;;;;;8.55;1.90;;;15.60;97.50;;;;;;5037081;28;20042;-73
2022/05/04 08:54:40;;;;;;;9.38;2.38;;;15.80;97.40;;;;;;5037051;28;20042;-72
2022/05/04 08:57:07;;;;;;;6.28;1.98;;;15.30;94.00;;;;;;5037190;28;20111;-72
2022/05/04 08:59:34;;;;;;;10.20;2.83;;;15.50;95.90;;;;;;5036893;28;20049;-71
2022/05/04 09:01:59;;;;;;;8.82;2.28;;;15.60;96.20;;;;;;5036994;28;20049;-73
2022/05/04 09:04:25;;;;;;;8.18;2.75;;;15.40;95.50;;;;;;5036848;28;20172;-73
2022/05/04 09:06:51;;;;;;;5.35;1.80;;;15.20;95.20;;;;;;5036704;28;20123;-72
2022/05/04 09:09:17;;;;;;;9.80;2.45;;;14.90;95.30;;;;;;5037427;28;20129;-73
2022/05/04 09:11:46;;;;;;;7.93;2.10;;;14.80;96.10;;;;;;5034028;28;20442;-71
2022/05/04 09:14:13;;;;;;;7.38;2.25;;;15.00;96.80;;;;;;5037020;28;20406;-73
2022/05/04 09:16:39;;;;;;;6.72;2.00;;;15.00;96.00;;;;;;5036675;28;20350;-72
2022/05/04 09:19:15;;;;;;;11.40;2.58;;;14.50;94.40;;;;;;5036430;28;20102;-72
2022/05/04 09:21:41;;;;;;;7.00;2.15;;;14.40;93.90;;;;;;5037065;28;20370;-72
2022/05/04 09:24:07;;;;;;;9.35;2.00;;;14.30;95.00;;;;;;5036812;28;20554;-72
2022/05/04 09:26:39;;;;;;;12.30;2.30;;;13.90;94.60;;;;;;5016110;28;20069;-73
2022/05/04 09:29:08;;;;;;;7.10;2.27;;;13.50;94.50;;;;;;5034885;28;20049;-72
2022/05/04 09:31:34;;;;;;;12.23;2.60;;;12.80;94.80;;;;;;5036865;28;20277;-73
2022/05/04 09:34:07;;;;;;;6.85;1.92;;;13.00;96.00;;;;;;5126705;22;20497;-71
2022/05/04 09:36:35;;;;;;;;;;;14.00;97.30;;;;;;5016851;28;20046;-71
2022/05/04 09:45:15;;;;;;;8.32;1.98;;;15.80;93.20;;;;;;5015286;28;20060;-71
2022/05/04 09:47:45;;;;;;;10.35;2.72;;;15.60;92.50;;;;;;4999153;28;20119;-71
2022/05/04 09:50:12;;;;;;;6.68;2.20;;;14.90;92.40;;;;;;4998890;28;20118;-71
2022/05/04 09:52:44;;;;;;;7.07;2.00;;;14.40;93.20;;;;;;4999263;28;20137;-71
2022/05/04 09:55:19;;;;;;;6.82;2.28;;;14.20;93.40;;;;;;5015725;28;20340;-72
2022/05/04 09:57:47;;;;;;;5.40;2.05;;;13.90;92.80;;;;;;5015899;28;20052;-71
2022/05/04 10:00:14;;;;;;;9.60;2.22;;;13.40;93.60;;;;;;5015848;28;20049;-71
2022/05/04 10:02:44;;;;;;;8.45;2.42;;;13.00;94.30;;;;;;5015868;28;20034;-71
2022/05/04 10:05:10;;;;;;;9.05;2.55;;;12.80;94.90;;;;;;4998927;28;20053;-72
2022/05/04 10:07:36;;;;;;;8.90;2.45;;;13.10;96.10;;;;;;5015762;28;20034;-71
2022/05/04 10:10:04;;;;;;;10.80;2.50;;;13.70;96.40;;;;;;5015697;28;20049;-72
2022/05/04 10:12:30;;;;;;;9.55;2.55;;;13.90;94.50;;;;;;4998662;28;20474;-72
2022/05/04 10:14:58;;;;;;;7.82;2.67;;;14.10;94.80;;;;;;5016120;28;20384;-71
2022/05/04 10:17:26;;;;;;;11.98;2.60;;;14.10;93.00;;;;;;5015714;28;20050;-71
2022/05/04 10:20:05;;;;;;;6.40;2.22;;;14.20;94.80;;;;;;5012675;28;20054;-71
2022/05/04 10:22:41;;;;;;;10.50;2.42;;;14.10;94.00;;;;;;5015706;28;20080;-71
2022/05/04 10:25:07;;;;;;;6.72;2.53;;;13.90;93.60;;;;;;5015507;28;20056;-71
2022/05/04 10:27:39;;;;;;;10.73;2.33;;;13.80;94.20;;;;;;4998874;28;20050;-72
2022/05/04 10:32:55;;;;;;;10.40;2.90;;;14.00;95.30;;;;;;5015286;28;20458;-72
2022/05/04 10:35:30;;;;;;;9.55;2.55;;;13.90;95.00;;;;;;5015258;28;20072;-72
2022/05/04 10:37:57;;;;;;;9.75;2.25;;;14.00;95.40;;;;;;5015196;28;20117;-72
2022/05/04 10:40:45;;;;;;;7.85;2.38;;;14.10;95.30;;;;;;5015207;28;20042;-72
2022/05/04 10:43:13;;;;;;;16.58;2.67;;;14.20;95.10;;;;;;5015157;28;20045;-72
2022/05/04 10:45:41;;;;;;;8.20;2.50;;;14.40;95.40;;;;;;4964813;28;20065;-71
2022/05/04 10:48:27;;;;;;;11.65;2.65;;;14.40;94.90;;;;;;4982582;28;20525;-71
2022/05/04 10:50:55;;;;;;;8.32;2.38;;;14.50;94.20;;;;;;5015428;28;20068;-72
2022/05/04 10:53:53;;;;;;;11.45;2.28;;;14.40;94.60;;;;;;5015362;28;20115;-71
2022/05/04 10:56:20;;;;;;;8.02;2.40;;;14.40;94.60;;;;;;4997590;28;20447;-72
2022/05/04 10:58:53;;;;;;;14.02;2.80;;;14.40;94.40;;;;;;5015009;28;20121;-71
2022/05/04 11:01:24;;;;;;;13.98;2.60;;;14.30;94.60;;;;;;5012427;28;20054;-72
2022/05/04 11:04:10;;;;;;;11.40;2.80;;;14.00;94.80;;;;;;5015546;28;20054;-72
2022/05/04 11:06:36;;;;;;;12.15;2.90;;;13.70;94.80;;;;;;5014983;28;20053;-72
2022/05/04 11:09:14;;;;;;;9.50;2.75;;;13.30;95.20;;;;;;5015361;28;20058;-72
2022/05/04 11:11:45;;;;;;;9.35;2.83;;;13.20;96.20;;;;;;5015579;28;20366;-72
2022/05/04 11:14:13;;;;;;;13.90;2.67;;;13.20;95.90;;;;;;4997752;28;20054;-71
2022/05/04 11:16:40;;;;;;;9.93;2.63;;;13.40;96.60;;;;;;4997990;28;20437;-71
2022/05/04 11:19:06;;;;;;;14.02;2.80;;;13.50;96.40;;;;;;5014946;28;20050;-71
2022/05/04 11:21:33;;;;;;;12.38;3.70;;;13.70;96.00;;;;;;5014852;28;20042;-71
2022/05/04 11:24:04;;;;;;;7.38;2.67;;;13.60;95.30;;;;;;5014779;28;20462;-71
2022/05/04 11:26:42;;;;;;;11.70;2.92;;;13.60;96.30;;;;;;4997740;28;20100;-71
2022/05/04 11:29:11;;;;;;;7.95;2.58;;;13.80;97.20;;;;;;5015297;28;20096;-72
2022/05/04 11:31:41;;;;;;;6.65;2.40;;;14.10;96.60;;;;;;5014710;28;20092;-71
2022/05/04 11:34:06;;;;;;;8.63;2.72;;;14.20;96.00;;;;;;5014492;28;20372;-72
2022/05/04 11:36:32;;;;;;;8.35;2.78;;;14.30;95.50;;;;;;5015147;28;20056;-72
2022/05/04 11:38:58;;;;;;;9.68;2.83;;;14.00;95.10;;;;;;5015076;28;20060;-72
2022/05/04 11:41:23;;;;;;;8.13;2.80;;;13.70;95.50;;;;;;5015283;28;20050;-72
2022/05/04 11:43:50;;;;;;;10.23;3.15;;;13.80;96.40;;;;;;5014970;28;20045;-71
2022/05/04 11:46:16;;;;;;;7.85;2.70;;;13.80;95.40;;;;;;5014654;28;20103;-71
2022/05/04 11:48:47;;;;;;;8.07;3.15;;;13.90;95.80;;;;;;5014522;28;20041;-72
2022/05/04 11:51:17;;;;;;;10.25;3.22;;;13.80;95.70;;;;;;4997997;28;20377;-71
2022/05/04 11:53:43;;;;;;;11.32;2.80;;;13.90;95.60;;;;;;5014434;28;20359;-71
2022/05/04 11:56:11;;;;;;;7.38;2.83;;;14.10;95.90;;;;;;5014448;28;20072;-71
2022/05/04 11:58:37;;;;;;;8.60;2.75;;;14.30;96.10;;;;;;5014162;28;20466;-72
2022/05/04 12:01:06;;;;;;;8.93;2.80;;;14.30;95.90;;;;;;4997215;28;20046;-71
2022/05/04 12:03:35;;;;;;;10.02;3.17;;;14.30;95.00;;;;;;5014339;28;20060;-72
2022/05/04 12:06:03;;;;;;;12.35;2.83;;;14.40;95.20;;;;;;5014300;28;20052;-72
2022/05/04 12:08:29;;;;;;;6.53;2.35;;;14.60;95.20;;;;;;5015310;28;20052;-71
2022/05/04 12:10:55;;;;;;;7.32;2.72;;;14.50;94.80;;;;;;5018134;28;20077;-71
2022/05/04 12:13:23;;;;;;;11.52;2.75;;;14.60;94.60;;;;;;5017898;28;20096;-71
2022/05/04 12:15:52;;;;;;;9.77;2.75;;;14.40;94.90;;;;;;5017743;28;20050;-72
2022/05/04 12:18:17;;;;;;;7.78;2.75;;;14.60;95.40;;;;;;5017717;28;20082;-72
2022/05/04 12:20:45;;;;;;;9.80;2.67;;;15.00;95.50;;;;;;5017752;28;20085;-71
2022/05/04 12:23:12;;;;;;;8.77;3.10;;;15.10;95.20;;;;;;5017697;28;20054;-71
2022/05/04 12:25:39;;;;;;;7.85;2.70;;;15.30;94.40;;;;;;5017888;28;20046;-71
2022/05/04 12:28:05;;;;;;;7.78;2.88;;;15.40;93.90;;;;;;5017608;28;20052;-71
2022/05/04 12:33:15;;;;;;;8.05;2.83;;;15.50;93.70;;;;;;5017264;28;20108;-71
2022/05/04 12:35:43;;;;;;;6.93;2.58;;;15.20;93.70;;;;;;5000864;28;20065;-72
2022/05/04 12:38:15;;;;;;;10.30;2.80;;;14.80;93.80;;;;;;5017450;28;20054;-72
2022/05/04 12:40:41;;;;;;;9.13;2.80;;;14.90;94.50;;;;;;5017164;28;20073;-71
2022/05/04 12:43:07;;;;;;;9.48;3.05;;;14.90;94.50;;;;;;5017156;28;20042;-71
2022/05/04 12:45:35;;;;;;;8.65;2.72;;;14.90;94.70;;;;;;5017467;28;20371;-72
2022/05/04 12:48:04;;;;;;;11.80;3.38;;;15.00;93.60;;;;;;5017204;28;20336;-71
2022/05/04 12:50:29;;;;;;;7.63;3.25;;;14.90;94.90;;;;;;5017180;28;20486;-71
2022/05/04 12:52:56;;;;;;;8.88;2.28;;;14.90;94.20;;;;;;5017132;28;20052;-71
2022/05/04 12:58:09;;;;;;;10.88;2.80;;;15.10;94.10;;;;;;5016980;28;20049;-71
2022/05/04 13:00:35;;;;;;;8.40;3.03;;;15.20;94.30;;;;;;5016954;28;20115;-72
2022/05/04 13:03:01;;;;;;;12.00;3.20;;;15.00;93.90;;;;;;5017184;28;20132;-72
2022/05/04 13:05:26;;;;;;;8.93;3.15;;;15.10;94.80;;;;;;5016882;28;20438;-71
2022/05/04 13:07:52;;;;;;;13.00;2.75;;;15.20;93.40;;;;;;5016777;28;20050;-72
2022/05/04 13:10:18;;;;;;;8.75;3.13;;;15.30;93.90;;;;;;5016968;28;20371;-72
2022/05/04 13:12:44;;;;;;;9.52;2.88;;;15.40;93.80;;;;;;5016850;28;20407;-72
2022/05/04 13:15:10;;;;;;;11.85;3.10;;;15.20;93.60;;;;;;5016845;28;20053;-71
2022/05/04 13:17:35;;;;;;;7.15;2.47;;;15.40;94.00;;;;;;5013802;28;20081;-72
2022/05/04 13:20:01;;;;;;;9.25;2.78;;;15.40;93.60;;;;;;5016695;28;20056;-71
2022/05/04 13:22:27;;;;;;;9.40;2.22;;;15.60;94.00;;;;;;5016636;28;20121;-72
2022/05/04 13:24:53;;;;;;;5.80;2.25;;;15.90;93.90;;;;;;5013390;28;20132;-72
2022/05/04 13:27:19;;;;;;;7.40;2.67;;;16.10;92.90;;;;;;5017008;28;20092;-72